ASH weather

Boire Field
Nashua, New Hampshire, United States

Public forecast

Using degrees Fahrenheit for public forecast. Weather courtesy of forecast.io.

METAR (pilot weather report)

Retrieved 2017/12/16 01:56 UTC (10 minutes ago):

KASH 160156Z 00000KT 10SM BKN070 OVC080 M06/M10 A2986 RMK AO2 SLP125 T10561100

TAF (pilot weather forecast)

Forecast is more than 12 hours old.

Closest forecast is Manchester Airport, 9.7 nm (18.0 km) NNE. Retrieved 2017/12/15 00:22 UTC (1 day ago):

TAF KMHT 152320Z 1600/1624 VRB03KT P6SM OVC050 FM161800 28010G18KT P6SM BKN050